createdAt,value
2019-03-12T00:00:38.800Z,9.40
2019-03-12T00:03:07.347Z,13.48
2019-03-12T00:05:35.915Z,14.18
2019-03-12T00:08:04.511Z,12.03
2019-03-12T00:10:33.028Z,12.75
2019-03-12T00:13:01.456Z,15.23
2019-03-12T00:15:29.905Z,18.55
2019-03-12T00:17:58.469Z,14.78
2019-03-12T00:20:27.057Z,14.75
2019-03-12T00:22:55.601Z,13.43
2019-03-12T00:25:23.984Z,12.80
2019-03-12T00:27:52.588Z,12.75
2019-03-12T00:30:21.189Z,14.30
2019-03-12T00:32:49.628Z,14.13
2019-03-12T00:35:18.199Z,14.20
2019-03-12T00:37:46.636Z,15.95
2019-03-12T00:40:17.938Z,13.60
2019-03-12T00:42:48.316Z,13.68
2019-03-12T00:45:16.878Z,12.90
2019-03-12T00:47:45.305Z,14.25
2019-03-12T00:50:13.815Z,15.18
2019-03-12T00:52:42.214Z,13.15
2019-03-12T00:55:10.692Z,14.70
2019-03-12T00:57:39.152Z,12.23
2019-03-12T01:00:11.113Z,12.98
2019-03-12T01:02:39.579Z,13.48
2019-03-12T01:05:07.996Z,11.65
2019-03-12T01:07:36.667Z,13.80
2019-03-12T01:10:07.494Z,13.43
2019-03-12T01:12:36.038Z,13.00
2019-03-12T01:15:06.219Z,14.33
2019-03-12T01:20:02.500Z,13.45
2019-03-12T01:22:31.152Z,12.60
2019-03-12T01:24:59.568Z,13.62
2019-03-12T01:27:30.601Z,14.90
2019-03-12T01:29:59.093Z,12.37
2019-03-12T01:32:27.696Z,10.70
2019-03-12T01:34:56.134Z,15.55
2019-03-12T01:37:24.529Z,14.55
2019-03-12T01:39:52.970Z,14.38
2019-03-12T01:42:21.337Z,13.30
2019-03-12T01:44:49.830Z,12.55
2019-03-12T01:47:18.216Z,13.40
2019-03-12T01:49:46.676Z,16.05
2019-03-12T01:52:15.136Z,16.12
2019-03-12T01:54:43.619Z,14.23
2019-03-12T01:57:12.129Z,13.90
2019-03-12T01:59:40.539Z,13.38
2019-03-12T02:02:09.051Z,12.50
2019-03-12T02:04:37.605Z,10.80
2019-03-12T02:07:05.942Z,14.95
2019-03-12T02:09:34.454Z,14.58
2019-03-12T02:12:02.971Z,15.95
2019-03-12T02:14:50.821Z,16.67
2019-03-12T02:17:19.426Z,14.23
2019-03-12T02:19:47.858Z,14.18
2019-03-12T02:22:16.364Z,15.80
2019-03-12T02:24:52.603Z,11.38
2019-03-12T02:27:15.020Z,15.98
2019-03-12T02:29:43.469Z,16.62
2019-03-12T02:32:11.851Z,15.23
2019-03-12T02:34:40.469Z,16.17
2019-03-12T02:37:09.069Z,16.62
2019-03-12T02:39:37.547Z,14.25
2019-03-12T02:42:06.012Z,16.12
2019-03-12T02:44:34.397Z,14.53
2019-03-12T02:47:02.841Z,14.73
2019-03-12T02:49:31.223Z,16.95
2019-03-12T02:51:59.803Z,15.65
2019-03-12T02:54:28.211Z,15.80
2019-03-12T02:56:56.779Z,15.50
2019-03-12T02:59:25.253Z,14.38
2019-03-12T03:01:53.865Z,17.17
2019-03-12T03:04:22.518Z,19.05
2019-03-12T03:06:52.703Z,15.70
2019-03-12T03:11:50.978Z,17.10
2019-03-12T03:14:33.511Z,19.77
2019-03-12T03:17:01.956Z,17.70
2019-03-12T03:19:30.481Z,19.62
2019-03-12T03:21:58.859Z,15.25
2019-03-12T03:24:27.340Z,18.32
2019-03-12T03:26:55.772Z,20.95
2019-03-12T03:29:24.197Z,19.35
2019-03-12T03:31:52.733Z,17.90
2019-03-12T03:34:27.206Z,19.60
2019-03-12T03:36:51.358Z,16.00
2019-03-12T03:39:19.777Z,17.48
2019-03-12T03:41:48.237Z,16.50
2019-03-12T03:44:16.755Z,17.10
2019-03-12T03:46:45.199Z,18.73
2019-03-12T03:49:13.754Z,15.72
2019-03-12T03:51:42.066Z,20.35
2019-03-12T03:54:10.446Z,18.35
2019-03-12T03:56:38.919Z,18.45
2019-03-12T03:59:07.314Z,17.80
2019-03-12T04:01:35.783Z,19.65
2019-03-12T04:04:04.250Z,19.65
2019-03-12T04:06:34.326Z,20.43
2019-03-12T04:09:02.860Z,16.90
2019-03-12T04:11:31.308Z,17.17
2019-03-12T04:13:59.856Z,19.30
2019-03-12T04:16:28.274Z,18.27
2019-03-12T04:18:56.787Z,19.35
2019-03-12T04:21:25.239Z,20.55
2019-03-12T04:23:53.726Z,19.17
2019-03-12T04:26:22.145Z,21.77
2019-03-12T04:28:50.543Z,20.43
2019-03-12T04:31:19.065Z,15.58
2019-03-12T04:34:02.759Z,19.52
2019-03-12T04:36:31.137Z,19.70
2019-03-12T04:38:59.540Z,18.37
2019-03-12T04:41:27.954Z,19.75
2019-03-12T04:43:56.449Z,16.25
2019-03-12T04:46:24.910Z,16.85
2019-03-12T04:48:53.341Z,16.97
2019-03-12T04:51:21.788Z,16.67
2019-03-12T04:53:52.390Z,17.77
2019-03-12T04:56:20.879Z,20.15
2019-03-12T04:58:49.274Z,16.55
2019-03-12T05:01:17.883Z,17.90
2019-03-12T05:03:46.504Z,18.07
2019-03-12T05:06:14.934Z,17.62
2019-03-12T05:08:43.408Z,15.55
2019-03-12T05:11:11.835Z,15.72
2019-03-12T05:13:40.385Z,13.95
2019-03-12T05:16:08.790Z,14.63
2019-03-12T05:18:37.273Z,14.60
2019-03-12T05:21:06.438Z,13.13
2019-03-12T05:23:34.869Z,14.38
2019-03-12T05:26:03.431Z,12.10
2019-03-12T05:28:31.784Z,13.53
2019-03-12T05:31:00.209Z,11.35
2019-03-12T05:33:28.738Z,13.00
2019-03-12T05:35:57.114Z,11.60
2019-03-12T05:38:25.505Z,10.55
2019-03-12T05:40:53.971Z,12.47
2019-03-12T05:43:22.336Z,12.13
2019-03-12T05:45:50.814Z,12.58
2019-03-12T05:48:19.211Z,10.45
2019-03-12T05:50:47.804Z,9.48
2019-03-12T05:53:16.283Z,9.50
2019-03-12T05:55:44.768Z,11.10
2019-03-12T05:58:13.217Z,11.40
2019-03-12T06:00:41.703Z,11.75
2019-03-12T06:03:10.041Z,11.20
2019-03-12T06:05:38.622Z,10.28
2019-03-12T06:08:07.242Z,6.15
2019-03-12T06:10:35.764Z,10.35
2019-03-12T06:13:04.173Z,9.93
2019-03-12T06:15:32.567Z,9.48
2019-03-12T06:18:00.987Z,9.45
2019-03-12T06:20:29.545Z,10.55
2019-03-12T06:22:57.911Z,9.60
2019-03-12T06:25:26.464Z,10.20
2019-03-12T06:27:55.022Z,9.73
2019-03-12T06:30:25.873Z,11.75
2019-03-12T06:32:55.155Z,10.60
2019-03-12T06:35:31.149Z,9.70
2019-03-12T06:38:07.047Z,8.70
2019-03-12T06:40:37.236Z,8.13
2019-03-12T06:46:02.108Z,7.67
2019-03-12T06:48:41.715Z,9.10
2019-03-12T06:51:11.859Z,9.43
2019-03-12T06:56:38.424Z,6.90
2019-03-12T06:59:11.269Z,10.32
2019-03-12T07:01:59.657Z,7.65
2019-03-12T07:04:35.388Z,9.85
2019-03-12T07:07:20.547Z,9.18
2019-03-12T07:09:50.543Z,6.40
2019-03-12T07:12:20.765Z,9.93
2019-03-12T07:17:45.826Z,10.38
2019-03-12T07:20:32.428Z,7.67
2019-03-12T07:23:18.821Z,9.63
2019-03-12T07:25:50.907Z,8.10
2019-03-12T07:28:23.449Z,8.70
2019-03-12T07:31:05.567Z,7.28
2019-03-12T07:33:53.838Z,13.03
2019-03-12T07:36:26.823Z,9.23
2019-03-12T07:38:59.699Z,9.85
2019-03-12T07:41:35.700Z,11.15
2019-03-12T07:44:08.504Z,8.15
2019-03-12T07:46:47.274Z,8.68
2019-03-12T07:49:38.878Z,11.35
2019-03-12T07:52:09.008Z,9.18
2019-03-12T07:54:40.823Z,10.95
2019-03-12T07:57:11.046Z,11.83
2019-03-12T08:02:31.822Z,10.75
2019-03-12T08:05:07.851Z,10.68
2019-03-12T08:07:53.905Z,10.40
2019-03-12T08:10:26.952Z,11.38
2019-03-12T08:13:00.229Z,10.88
2019-03-12T08:15:50.422Z,9.28
2019-03-12T08:18:36.471Z,11.12
2019-03-12T08:21:22.743Z,11.33
2019-03-12T08:24:02.157Z,10.35
2019-03-12T08:26:45.710Z,9.40
2019-03-12T08:29:18.729Z,9.83
2019-03-12T08:32:01.110Z,8.58
2019-03-12T08:34:33.890Z,9.43
2019-03-12T08:37:15.913Z,9.90
2019-03-12T08:39:48.851Z,10.50
2019-03-12T08:42:35.101Z,8.43
2019-03-12T08:45:11.098Z,7.97
2019-03-12T08:47:40.846Z,7.58
2019-03-12T08:50:26.745Z,7.42
2019-03-12T08:53:11.964Z,9.03
2019-03-12T08:55:41.947Z,8.93
2019-03-12T08:58:12.027Z,7.30
2019-03-12T09:00:42.110Z,7.58
2019-03-12T09:03:15.067Z,7.97
2019-03-12T09:05:47.502Z,8.20
2019-03-12T09:08:17.567Z,7.72
2019-03-12T09:11:03.851Z,8.00
2019-03-12T09:13:36.823Z,5.83
2019-03-12T09:16:16.070Z,7.47
2019-03-12T09:18:46.136Z,7.47
2019-03-12T09:21:16.125Z,5.55
2019-03-12T09:24:04.652Z,6.15
2019-03-12T09:26:52.708Z,5.42
2019-03-12T09:29:25.423Z,7.33
2019-03-12T09:31:55.497Z,5.67
2019-03-12T09:34:28.262Z,7.17
2019-03-12T09:37:07.378Z,9.15
2019-03-12T09:39:37.387Z,8.48
2019-03-12T09:42:23.763Z,10.58
2019-03-12T09:45:12.192Z,7.00
2019-03-12T09:47:45.818Z,5.35
2019-03-12T09:52:54.798Z,5.70
2019-03-12T09:55:27.626Z,4.03
2019-03-12T09:58:00.445Z,5.50
2019-03-12T10:00:46.946Z,5.65
2019-03-12T10:03:29.154Z,5.30
2019-03-12T10:05:59.244Z,4.97
2019-03-12T10:08:44.536Z,3.67
2019-03-12T10:11:20.567Z,2.90
2019-03-12T10:13:53.631Z,3.60
2019-03-12T10:16:23.741Z,4.55
2019-03-12T10:18:53.784Z,4.12
2019-03-12T10:21:26.574Z,3.70
2019-03-12T10:24:18.877Z,2.55
2019-03-12T10:26:48.931Z,4.78
2019-03-12T10:29:35.434Z,4.08
2019-03-12T10:32:05.784Z,4.67
2019-03-12T10:37:12.319Z,3.45
2019-03-12T10:40:00.392Z,2.33
2019-03-12T10:42:33.436Z,3.10
2019-03-12T10:45:06.036Z,3.72
2019-03-12T10:47:36.180Z,5.00
2019-03-12T10:50:08.352Z,3.75
2019-03-12T10:52:42.401Z,3.52
2019-03-12T10:55:13.328Z,2.58
2019-03-12T10:57:40.898Z,2.92
2019-03-12T11:00:12.585Z,2.37
2019-03-12T11:02:41.108Z,3.02
2019-03-12T11:05:09.474Z,2.47
2019-03-12T11:07:37.959Z,3.02
2019-03-12T11:10:12.221Z,2.75
2019-03-12T11:12:41.198Z,2.95
2019-03-12T11:15:11.062Z,2.15
2019-03-12T11:17:48.858Z,1.52
2019-03-12T11:20:18.823Z,2.55
2019-03-12T11:22:47.358Z,1.98
2019-03-12T11:25:26.363Z,3.55
2019-03-12T11:27:45.904Z,2.52
2019-03-12T11:30:19.221Z,3.12
2019-03-12T11:32:47.764Z,3.12
2019-03-12T11:35:16.312Z,2.08
2019-03-12T11:37:44.721Z,2.02
2019-03-12T11:40:21.127Z,2.05
2019-03-12T11:42:49.733Z,1.32
2019-03-12T11:45:19.988Z,1.87
2019-03-12T11:47:48.465Z,2.05
2019-03-12T11:50:19.862Z,3.60
2019-03-12T11:52:54.629Z,1.25
2019-03-12T11:55:18.859Z,1.22
2019-03-12T11:57:47.297Z,1.37
2019-03-12T12:00:31.300Z,2.00
2019-03-12T12:03:00.769Z,1.98
2019-03-12T12:05:29.350Z,2.37
2019-03-12T12:07:58.148Z,1.85
2019-03-12T12:10:26.885Z,1.27
2019-03-12T12:12:55.237Z,2.02
2019-03-12T12:15:23.633Z,1.92
2019-03-12T12:17:52.134Z,2.58
2019-03-12T12:20:29.774Z,2.58
2019-03-12T12:22:50.702Z,1.50
2019-03-12T12:25:19.979Z,1.85
2019-03-12T12:27:48.386Z,2.00
2019-03-12T12:30:20.651Z,2.67
2019-03-12T12:32:49.213Z,2.80
2019-03-12T12:35:17.713Z,1.77
2019-03-12T12:37:46.297Z,2.33
2019-03-12T12:40:20.855Z,2.72
2019-03-12T12:42:49.299Z,3.33
2019-03-12T12:45:33.304Z,3.33
2019-03-12T12:48:01.717Z,3.50
2019-03-12T12:50:30.194Z,2.40
2019-03-12T12:52:58.631Z,3.50
2019-03-12T12:55:27.147Z,2.65
2019-03-12T12:57:55.737Z,2.58
2019-03-12T13:00:26.276Z,2.70
2019-03-12T13:02:54.689Z,2.70
2019-03-12T13:05:25.533Z,2.95
2019-03-12T13:07:53.949Z,3.45
2019-03-12T13:10:26.776Z,3.55
2019-03-12T13:12:55.324Z,3.72
2019-03-12T13:15:24.119Z,2.33
2019-03-12T13:17:52.757Z,3.35
2019-03-12T13:20:21.296Z,3.35
2019-03-12T13:22:49.804Z,2.75
2019-03-12T13:25:18.894Z,2.50
2019-03-12T13:27:47.291Z,2.80
2019-03-12T13:30:21.588Z,2.27
2019-03-12T13:32:50.201Z,2.02
2019-03-12T13:35:19.351Z,2.67
2019-03-12T13:37:48.567Z,1.37
2019-03-12T13:40:22.378Z,3.02
2019-03-12T13:42:51.116Z,3.42
2019-03-12T13:45:26.812Z,1.92
2019-03-12T13:47:55.396Z,3.87
2019-03-12T13:50:23.790Z,1.60
2019-03-12T13:52:52.555Z,1.70
2019-03-12T13:55:20.917Z,2.02
2019-03-12T13:57:49.374Z,2.65
2019-03-12T14:00:22.195Z,2.77
2019-03-12T14:02:50.871Z,2.45
2019-03-12T14:05:19.311Z,2.15
2019-03-12T14:07:47.907Z,2.65
2019-03-12T14:10:29.939Z,2.12
2019-03-12T14:12:58.538Z,2.60
2019-03-12T14:15:31.685Z,2.30
2019-03-12T14:18:00.539Z,3.20
2019-03-12T14:20:46.280Z,2.83
2019-03-12T14:23:20.441Z,3.05
2019-03-12T14:25:49.148Z,4.08
2019-03-12T14:28:17.665Z,4.33
2019-03-12T14:30:46.066Z,3.75
2019-03-12T14:33:14.556Z,3.65
2019-03-12T14:35:51.328Z,4.05
2019-03-12T14:38:13.155Z,3.22
2019-03-12T14:40:41.776Z,2.98
2019-03-12T14:43:10.327Z,4.15
2019-03-12T14:45:40.164Z,2.58
2019-03-12T14:48:28.173Z,2.92
2019-03-12T14:50:56.528Z,1.98
2019-03-12T14:53:24.932Z,3.70
2019-03-12T14:55:53.323Z,4.70
2019-03-12T14:58:21.799Z,5.60
2019-03-12T15:00:50.186Z,3.35
2019-03-12T15:03:18.688Z,16.97
2019-03-12T15:05:47.187Z,5.65
2019-03-12T15:08:15.773Z,4.22
2019-03-12T15:10:44.099Z,3.85
2019-03-12T15:13:12.545Z,4.30
2019-03-12T15:15:41.010Z,3.75
2019-03-12T15:18:09.518Z,5.35
2019-03-12T15:20:37.945Z,4.05
2019-03-12T15:23:06.435Z,4.37
2019-03-12T15:25:34.940Z,4.37
2019-03-12T15:28:03.254Z,5.28
2019-03-12T15:30:31.723Z,7.17
2019-03-12T15:33:00.288Z,4.10
2019-03-12T15:35:28.721Z,4.03
2019-03-12T15:37:57.224Z,3.80
2019-03-12T15:40:25.629Z,4.12
2019-03-12T15:42:54.138Z,5.25
2019-03-12T15:45:22.565Z,6.72
2019-03-12T15:47:51.040Z,3.72
2019-03-12T15:50:19.458Z,3.40
2019-03-12T15:52:50.810Z,3.75
2019-03-12T15:55:19.625Z,2.92
2019-03-12T15:57:48.239Z,5.62
2019-03-12T16:00:17.913Z,3.35
2019-03-12T16:02:46.303Z,5.30
2019-03-12T16:05:14.810Z,4.87
2019-03-12T16:07:43.170Z,3.77
2019-03-12T16:10:19.502Z,4.58
2019-03-12T16:12:47.136Z,4.35
2019-03-12T16:15:16.788Z,4.15
2019-03-12T16:17:45.307Z,4.15
2019-03-12T16:20:21.764Z,3.95
2019-03-12T16:22:50.145Z,4.78
2019-03-12T16:25:18.532Z,5.22
2019-03-12T16:27:46.874Z,5.45
2019-03-12T16:30:17.030Z,4.42
2019-03-12T16:32:45.472Z,4.05
2019-03-12T16:35:13.831Z,4.12
2019-03-12T16:37:42.366Z,3.08
2019-03-12T16:40:17.640Z,3.85
2019-03-12T16:42:45.983Z,4.28
2019-03-12T16:45:15.903Z,3.80
2019-03-12T16:47:44.280Z,4.30
2019-03-12T16:50:14.296Z,3.42
2019-03-12T16:52:42.674Z,4.53
2019-03-12T16:55:32.152Z,2.62
2019-03-12T16:58:00.635Z,2.67
2019-03-12T17:00:29.197Z,3.00
2019-03-12T17:02:57.729Z,3.30
2019-03-12T17:05:26.611Z,3.42
2019-03-12T17:07:55.105Z,3.35
2019-03-12T17:10:23.592Z,3.00
2019-03-12T17:12:51.960Z,2.60
2019-03-12T17:15:22.303Z,2.95
2019-03-12T17:20:18.445Z,3.15
2019-03-12T17:22:46.849Z,2.87
2019-03-12T17:25:15.234Z,3.33
2019-03-12T17:27:43.634Z,4.08
2019-03-12T17:30:20.423Z,2.27
2019-03-12T17:32:48.788Z,2.87
2019-03-12T17:35:29.330Z,3.75
2019-03-12T17:37:57.825Z,2.80
2019-03-12T17:40:26.215Z,2.80
2019-03-12T17:42:54.911Z,3.83
2019-03-12T17:45:23.297Z,2.85
2019-03-12T17:47:51.772Z,3.90
2019-03-12T17:50:20.271Z,2.60
2019-03-12T17:52:48.660Z,4.97
2019-03-12T17:55:17.043Z,4.08
2019-03-12T17:57:50.894Z,2.80
2019-03-12T18:00:29.437Z,4.15
2019-03-12T18:02:57.833Z,3.42
2019-03-12T18:05:26.242Z,2.90
2019-03-12T18:07:54.640Z,3.45
2019-03-12T18:10:23.173Z,3.72
2019-03-12T18:12:51.523Z,3.85
2019-03-12T18:15:20.874Z,3.85
2019-03-12T18:17:49.259Z,3.07
2019-03-12T18:20:21.462Z,2.92
2019-03-12T18:22:49.828Z,3.20
2019-03-12T18:25:24.432Z,5.03
2019-03-12T18:27:52.816Z,3.20
2019-03-12T18:30:21.291Z,6.58
2019-03-12T18:32:49.619Z,4.45
2019-03-12T18:35:18.126Z,4.25
2019-03-12T18:37:46.581Z,3.90
2019-03-12T18:40:20.833Z,3.15
2019-03-12T18:42:49.249Z,4.78
2019-03-12T18:45:20.597Z,5.12
2019-03-12T18:47:48.956Z,3.47
2019-03-12T18:50:18.211Z,3.60
2019-03-12T18:52:46.595Z,4.00
2019-03-12T18:55:27.412Z,3.52
2019-03-12T18:57:55.790Z,3.33
2019-03-12T19:00:24.297Z,3.30
2019-03-12T19:02:52.674Z,2.80
2019-03-12T19:05:21.191Z,3.92
2019-03-12T19:07:49.632Z,3.52
2019-03-12T19:10:18.067Z,4.95
2019-03-12T19:12:46.608Z,3.47
2019-03-12T19:15:17.075Z,4.17
2019-03-12T19:17:45.120Z,3.25
2019-03-12T19:20:15.004Z,4.45
2019-03-12T19:22:43.514Z,3.27
2019-03-12T19:25:22.380Z,5.15
2019-03-12T19:27:59.661Z,4.42
2019-03-12T19:33:07.456Z,2.87
2019-03-12T19:35:35.933Z,3.47
2019-03-12T19:38:04.379Z,4.20
2019-03-12T19:40:41.518Z,5.95
2019-03-12T19:43:09.976Z,4.00
2019-03-12T19:45:38.444Z,4.05
2019-03-12T19:48:07.039Z,5.25
2019-03-12T19:50:35.815Z,4.08
2019-03-12T19:53:04.439Z,3.65
2019-03-12T19:55:44.925Z,3.47
2019-03-12T19:58:13.420Z,4.35
2019-03-12T20:00:41.981Z,2.70
2019-03-12T20:03:14.771Z,2.92
2019-03-12T20:08:08.426Z,3.22
2019-03-12T20:11:07.758Z,3.15
2019-03-12T20:13:56.463Z,4.05
2019-03-12T20:16:50.690Z,3.67
2019-03-12T20:19:31.427Z,3.22
2019-03-12T20:22:32.339Z,3.30
2019-03-12T20:25:12.894Z,3.30
2019-03-12T20:28:13.007Z,3.37
2019-03-12T20:31:04.200Z,2.95
2019-03-12T20:33:38.638Z,3.37
2019-03-12T20:36:31.039Z,2.40
2019-03-12T20:39:36.578Z,3.47
2019-03-12T20:42:31.284Z,2.95
2019-03-12T20:45:36.630Z,2.52
2019-03-12T20:48:24.949Z,3.35
2019-03-12T20:51:16.369Z,2.15
2019-03-12T20:54:04.664Z,3.83
2019-03-12T20:56:54.411Z,2.80
2019-03-12T20:59:46.049Z,3.50
2019-03-12T21:02:29.571Z,2.80
2019-03-12T21:05:03.985Z,3.33
2019-03-12T21:08:10.558Z,4.58
2019-03-12T21:11:11.236Z,3.83
2019-03-12T21:14:08.691Z,3.98
2019-03-12T21:17:13.933Z,4.08
2019-03-12T21:20:08.280Z,4.03
2019-03-12T21:22:47.285Z,3.87
2019-03-12T21:25:35.716Z,3.33
2019-03-12T21:28:13.190Z,3.45
2019-03-12T21:30:41.534Z,3.27
2019-03-12T21:33:15.356Z,4.95
2019-03-12T21:35:40.013Z,2.60
2019-03-12T21:38:08.734Z,3.45
2019-03-12T21:40:37.179Z,3.08
2019-03-12T21:43:05.583Z,3.30
2019-03-12T21:45:34.195Z,3.67
2019-03-12T21:48:02.582Z,2.85
2019-03-12T21:50:31.072Z,2.72
2019-03-12T21:52:59.512Z,4.75
2019-03-12T21:55:30.041Z,3.72
2019-03-12T21:57:58.506Z,2.65
2019-03-12T22:00:26.855Z,3.95
2019-03-12T22:02:55.222Z,2.98
2019-03-12T22:05:23.755Z,4.03
2019-03-12T22:07:52.625Z,3.40
2019-03-12T22:10:21.124Z,3.65
2019-03-12T22:12:49.658Z,2.55
2019-03-12T22:15:18.047Z,2.67
2019-03-12T22:17:46.438Z,3.02
2019-03-12T22:20:15.373Z,3.30
2019-03-12T22:22:48.100Z,3.00
2019-03-12T22:25:16.678Z,2.50
2019-03-12T22:27:45.146Z,3.30
2019-03-12T22:30:16.797Z,2.58
2019-03-12T22:32:45.302Z,3.42
2019-03-12T22:35:13.661Z,3.08
2019-03-12T22:37:42.208Z,2.90
2019-03-12T22:40:12.838Z,2.77
2019-03-12T22:42:41.273Z,3.65
2019-03-12T22:45:11.119Z,2.47
2019-03-12T22:47:39.649Z,3.35
2019-03-12T22:50:13.239Z,2.83
2019-03-12T22:52:41.793Z,2.58
2019-03-12T22:55:11.682Z,2.85
2019-03-12T22:57:40.092Z,3.60
2019-03-12T23:00:16.414Z,2.67
2019-03-12T23:02:47.232Z,2.87
2019-03-12T23:05:15.825Z,3.10
2019-03-12T23:07:44.360Z,2.83
2019-03-12T23:10:14.708Z,3.25
2019-03-12T23:15:16.598Z,2.87
2019-03-12T23:17:45.185Z,2.62
2019-03-12T23:20:19.865Z,3.08
2019-03-12T23:22:51.607Z,2.90
2019-03-12T23:25:18.389Z,2.42
2019-03-12T23:27:46.851Z,2.42
2019-03-12T23:30:20.428Z,2.75
2019-03-12T23:32:49.189Z,3.27
2019-03-12T23:35:17.859Z,1.98
2019-03-12T23:37:47.489Z,2.33
2019-03-12T23:40:17.997Z,3.22
2019-03-12T23:42:46.627Z,2.83
2019-03-12T23:45:17.009Z,2.12
2019-03-12T23:47:45.533Z,1.55
2019-03-12T23:50:17.555Z,1.70
2019-03-12T23:52:46.181Z,2.22
2019-03-12T23:55:17.198Z,1.55
2019-03-12T23:57:45.970Z,1.92
